Main page
METAR-TAF:

METAR-TAF

Airports :

Casement Aerodrome

Dublin, Ireland

latitude: 53-18-06N, longitude: 6-27-04W, elevation: 97 m

Current weather observation

The report was made 1 hour and 5 minutes ago, at 17:00 UTC
Wind 11 kt from the West
Temperature 8°C
Humidity 76%
Pressure 1018 hPa
Visibility 10 km or more
Few clouds at a height of 2800 ft
Broken clouds at a height of 25000 ft

METAR: EIME 211700Z 27011KT 9999 FEW028 BKN250 08/04 Q1018

Time: 19:05 (18:05 UTC)

Forecast

The report was made 1 hour and 5 minutes ago, at 17:00 UTC
Forecast valid from 21 at 18 UTC to 22 at 03 UTC
Wind 13 kt from the West/Southwest
Visibility 10 km or more
Few clouds at a height of 2000 ft

TAF: EIME 211700Z 2118/2203 25013KT 9999 FEW020

Weather observations and forecasts of more than 4000 airports (METAR and TAF reports).

The available stations are represented by yellow and red dots on the map.

Hover mouse over dot to see the name of the station.

Then click to see weather observations and forecasts.

To change the map : click on the green buttons with a black cross to zoom in, on the green button with a dash to zoom out, or on the green arrows for adjacent maps.


METAR-TAF: